sensor_id;sensor_type;location;lat;lon;timestamp;P1;durP1;ratioP1;P2;durP2;ratioP2
10430;SDS011;5262;59.958;17.726;2024-01-27T00:01:49;1.57;;;1.20;;
10430;SDS011;5262;59.958;17.726;2024-01-27T00:04:15;1.50;;;1.10;;
10430;SDS011;5262;59.958;17.726;2024-01-27T00:06:41;1.47;;;1.27;;
10430;SDS011;5262;59.958;17.726;2024-01-27T00:09:07;1.27;;;1.17;;
10430;SDS011;5262;59.958;17.726;2024-01-27T00:11:32;1.77;;;1.37;;
10430;SDS011;5262;59.958;17.726;2024-01-27T00:13:58;1.63;;;1.30;;
10430;SDS011;5262;59.958;17.726;2024-01-27T00:16:27;2.10;;;1.27;;
10430;SDS011;5262;59.958;17.726;2024-01-27T00:18:53;1.60;;;1.50;;
10430;SDS011;5262;59.958;17.726;2024-01-27T00:21:18;1.33;;;1.23;;
10430;SDS011;5262;59.958;17.726;2024-01-27T00:23:44;1.33;;;1.13;;
10430;SDS011;5262;59.958;17.726;2024-01-27T00:26:09;1.63;;;1.27;;
10430;SDS011;5262;59.958;17.726;2024-01-27T00:28:36;1.50;;;1.40;;
10430;SDS011;5262;59.958;17.726;2024-01-27T00:31:01;2.17;;;1.60;;
10430;SDS011;5262;59.958;17.726;2024-01-27T00:33:27;2.60;;;1.60;;
10430;SDS011;5262;59.958;17.726;2024-01-27T00:35:53;1.70;;;1.60;;
10430;SDS011;5262;59.958;17.726;2024-01-27T00:38:19;1.87;;;1.63;;
10430;SDS011;5262;59.958;17.726;2024-01-27T00:40:44;2.00;;;1.63;;
10430;SDS011;5262;59.958;17.726;2024-01-27T00:43:10;1.73;;;1.40;;
10430;SDS011;5262;59.958;17.726;2024-01-27T00:45:36;2.33;;;1.70;;
10430;SDS011;5262;59.958;17.726;2024-01-27T00:48:01;1.70;;;1.53;;
10430;SDS011;5262;59.958;17.726;2024-01-27T00:50:27;1.70;;;1.60;;
10430;SDS011;5262;59.958;17.726;2024-01-27T00:52:53;3.50;;;1.87;;
10430;SDS011;5262;59.958;17.726;2024-01-27T00:55:18;3.50;;;1.57;;
10430;SDS011;5262;59.958;17.726;2024-01-27T00:57:44;3.27;;;2.00;;
10430;SDS011;5262;59.958;17.726;2024-01-27T01:00:10;2.97;;;2.20;;
10430;SDS011;5262;59.958;17.726;2024-01-27T01:02:36;2.47;;;1.80;;
10430;SDS011;5262;59.958;17.726;2024-01-27T01:05:02;2.93;;;2.37;;
10430;SDS011;5262;59.958;17.726;2024-01-27T01:07:31;3.03;;;2.03;;
10430;SDS011;5262;59.958;17.726;2024-01-27T01:09:57;2.57;;;2.37;;
10430;SDS011;5262;59.958;17.726;2024-01-27T01:12:23;2.63;;;2.37;;
10430;SDS011;5262;59.958;17.726;2024-01-27T01:14:50;2.90;;;2.20;;
10430;SDS011;5262;59.958;17.726;2024-01-27T01:17:16;3.60;;;2.63;;
10430;SDS011;5262;59.958;17.726;2024-01-27T01:19:42;2.97;;;2.43;;
10430;SDS011;5262;59.958;17.726;2024-01-27T01:22:08;4.73;;;3.00;;
10430;SDS011;5262;59.958;17.726;2024-01-27T01:24:33;3.60;;;3.07;;
10430;SDS011;5262;59.958;17.726;2024-01-27T01:26:59;3.67;;;3.07;;
10430;SDS011;5262;59.958;17.726;2024-01-27T01:29:25;5.80;;;3.83;;
10430;SDS011;5262;59.958;17.726;2024-01-27T01:31:51;8.90;;;4.77;;
10430;SDS011;5262;59.958;17.726;2024-01-27T01:34:17;10.27;;;4.70;;
10430;SDS011;5262;59.958;17.726;2024-01-27T01:36:42;7.87;;;4.53;;
10430;SDS011;5262;59.958;17.726;2024-01-27T01:39:10;8.73;;;4.83;;
10430;SDS011;5262;59.958;17.726;2024-01-27T01:41:36;11.23;;;6.37;;
10430;SDS011;5262;59.958;17.726;2024-01-27T01:44:01;7.87;;;5.07;;
10430;SDS011;5262;59.958;17.726;2024-01-27T01:46:27;8.30;;;4.97;;
10430;SDS011;5262;59.958;17.726;2024-01-27T01:48:53;7.33;;;4.43;;
10430;SDS011;5262;59.958;17.726;2024-01-27T01:51:19;6.47;;;3.87;;
10430;SDS011;5262;59.958;17.726;2024-01-27T01:53:46;5.07;;;3.30;;
10430;SDS011;5262;59.958;17.726;2024-01-27T01:56:13;3.20;;;2.10;;
10430;SDS011;5262;59.958;17.726;2024-01-27T01:58:40;2.57;;;2.30;;
10430;SDS011;5262;59.958;17.726;2024-01-27T02:01:06;1.97;;;1.77;;
10430;SDS011;5262;59.958;17.726;2024-01-27T02:03:31;2.23;;;1.90;;
10430;SDS011;5262;59.958;17.726;2024-01-27T02:05:57;2.10;;;1.80;;
10430;SDS011;5262;59.958;17.726;2024-01-27T02:08:23;1.83;;;1.60;;
10430;SDS011;5262;59.958;17.726;2024-01-27T02:10:48;1.77;;;1.50;;
10430;SDS011;5262;59.958;17.726;2024-01-27T02:13:17;1.30;;;1.20;;
10430;SDS011;5262;59.958;17.726;2024-01-27T02:15:45;1.60;;;1.47;;
10430;SDS011;5262;59.958;17.726;2024-01-27T02:18:10;1.23;;;1.10;;
10430;SDS011;5262;59.958;17.726;2024-01-27T02:20:36;1.20;;;1.03;;
10430;SDS011;5262;59.958;17.726;2024-01-27T02:23:03;1.10;;;0.90;;
10430;SDS011;5262;59.958;17.726;2024-01-27T02:25:32;2.17;;;1.30;;
10430;SDS011;5262;59.958;17.726;2024-01-27T02:27:58;1.00;;;0.90;;
10430;SDS011;5262;59.958;17.726;2024-01-27T02:30:24;1.43;;;1.10;;
10430;SDS011;5262;59.958;17.726;2024-01-27T02:32:50;1.10;;;1.00;;
10430;SDS011;5262;59.958;17.726;2024-01-27T02:35:16;1.20;;;1.10;;
10430;SDS011;5262;59.958;17.726;2024-01-27T02:37:42;1.23;;;1.00;;
10430;SDS011;5262;59.958;17.726;2024-01-27T02:40:08;1.37;;;1.10;;
10430;SDS011;5262;59.958;17.726;2024-01-27T02:42:35;1.20;;;1.10;;
10430;SDS011;5262;59.958;17.726;2024-01-27T02:45:01;1.50;;;1.30;;
10430;SDS011;5262;59.958;17.726;2024-01-27T02:47:28;1.40;;;1.20;;
10430;SDS011;5262;59.958;17.726;2024-01-27T02:49:53;1.20;;;1.10;;
10430;SDS011;5262;59.958;17.726;2024-01-27T02:52:19;1.40;;;1.20;;
10430;SDS011;5262;59.958;17.726;2024-01-27T02:54:45;1.57;;;1.00;;
10430;SDS011;5262;59.958;17.726;2024-01-27T02:57:10;8.23;;;1.20;;
10430;SDS011;5262;59.958;17.726;2024-01-27T02:59:36;2.60;;;1.20;;
10430;SDS011;5262;59.958;17.726;2024-01-27T03:02:04;1.30;;;1.20;;
10430;SDS011;5262;59.958;17.726;2024-01-27T03:04:30;1.20;;;1.00;;
10430;SDS011;5262;59.958;17.726;2024-01-27T03:06:56;1.27;;;1.07;;
10430;SDS011;5262;59.958;17.726;2024-01-27T03:09:21;1.50;;;1.20;;
10430;SDS011;5262;59.958;17.726;2024-01-27T03:11:47;1.50;;;1.20;;
10430;SDS011;5262;59.958;17.726;2024-01-27T03:14:12;1.30;;;1.20;;
10430;SDS011;5262;59.958;17.726;2024-01-27T03:16:38;1.40;;;0.93;;
10430;SDS011;5262;59.958;17.726;2024-01-27T03:19:04;1.33;;;1.03;;
10430;SDS011;5262;59.958;17.726;2024-01-27T03:21:29;1.17;;;1.07;;
10430;SDS011;5262;59.958;17.726;2024-01-27T03:23:55;1.30;;;0.93;;
10430;SDS011;5262;59.958;17.726;2024-01-27T03:26:21;1.00;;;0.80;;
10430;SDS011;5262;59.958;17.726;2024-01-27T03:28:46;1.37;;;0.90;;
10430;SDS011;5262;59.958;17.726;2024-01-27T03:31:12;1.10;;;0.77;;
10430;SDS011;5262;59.958;17.726;2024-01-27T03:33:38;1.43;;;0.90;;
10430;SDS011;5262;59.958;17.726;2024-01-27T03:36:08;2.07;;;0.80;;
10430;SDS011;5262;59.958;17.726;2024-01-27T03:38:38;2.03;;;1.00;;
10430;SDS011;5262;59.958;17.726;2024-01-27T03:41:05;1.07;;;0.77;;
10430;SDS011;5262;59.958;17.726;2024-01-27T03:43:31;1.20;;;0.80;;
10430;SDS011;5262;59.958;17.726;2024-01-27T03:45:57;0.80;;;0.70;;
10430;SDS011;5262;59.958;17.726;2024-01-27T03:48:23;1.13;;;1.03;;
10430;SDS011;5262;59.958;17.726;2024-01-27T03:50:49;1.00;;;0.90;;
10430;SDS011;5262;59.958;17.726;2024-01-27T03:53:14;2.40;;;0.90;;
10430;SDS011;5262;59.958;17.726;2024-01-27T03:55:40;1.30;;;0.90;;
10430;SDS011;5262;59.958;17.726;2024-01-27T03:58:06;1.17;;;0.97;;
10430;SDS011;5262;59.958;17.726;2024-01-27T04:00:31;1.10;;;0.93;;
10430;SDS011;5262;59.958;17.726;2024-01-27T04:02:58;1.00;;;0.90;;
10430;SDS011;5262;59.958;17.726;2024-01-27T04:05:24;0.80;;;0.80;;
10430;SDS011;5262;59.958;17.726;2024-01-27T04:07:50;1.27;;;0.93;;
10430;SDS011;5262;59.958;17.726;2024-01-27T04:10:16;2.17;;;1.00;;
10430;SDS011;5262;59.958;17.726;2024-01-27T04:12:43;1.27;;;1.00;;
10430;SDS011;5262;59.958;17.726;2024-01-27T04:15:09;1.63;;;1.10;;
10430;SDS011;5262;59.958;17.726;2024-01-27T04:17:36;2.67;;;1.10;;
10430;SDS011;5262;59.958;17.726;2024-01-27T04:20:02;1.33;;;1.00;;
10430;SDS011;5262;59.958;17.726;2024-01-27T04:22:28;1.40;;;1.10;;
10430;SDS011;5262;59.958;17.726;2024-01-27T04:24:53;1.20;;;1.10;;
10430;SDS011;5262;59.958;17.726;2024-01-27T04:27:19;1.23;;;1.00;;
10430;SDS011;5262;59.958;17.726;2024-01-27T04:29:45;1.20;;;1.10;;
10430;SDS011;5262;59.958;17.726;2024-01-27T04:32:10;1.83;;;0.93;;
10430;SDS011;5262;59.958;17.726;2024-01-27T04:34:38;1.00;;;0.90;;
10430;SDS011;5262;59.958;17.726;2024-01-27T04:37:03;0.93;;;0.90;;
10430;SDS011;5262;59.958;17.726;2024-01-27T04:39:29;1.30;;;0.90;;
10430;SDS011;5262;59.958;17.726;2024-01-27T04:41:55;0.70;;;0.70;;
10430;SDS011;5262;59.958;17.726;2024-01-27T04:44:21;1.40;;;0.80;;
10430;SDS011;5262;59.958;17.726;2024-01-27T04:46:46;0.90;;;0.80;;
10430;SDS011;5262;59.958;17.726;2024-01-27T04:49:13;1.67;;;1.00;;
10430;SDS011;5262;59.958;17.726;2024-01-27T04:51:39;1.63;;;1.00;;
10430;SDS011;5262;59.958;17.726;2024-01-27T04:54:05;1.00;;;0.90;;
10430;SDS011;5262;59.958;17.726;2024-01-27T04:56:30;1.63;;;0.90;;
10430;SDS011;5262;59.958;17.726;2024-01-27T04:58:56;1.00;;;0.90;;
10430;SDS011;5262;59.958;17.726;2024-01-27T05:01:22;1.03;;;0.90;;
10430;SDS011;5262;59.958;17.726;2024-01-27T05:03:47;1.60;;;1.07;;
10430;SDS011;5262;59.958;17.726;2024-01-27T05:06:13;1.10;;;1.00;;
10430;SDS011;5262;59.958;17.726;2024-01-27T05:08:39;1.83;;;1.17;;
10430;SDS011;5262;59.958;17.726;2024-01-27T05:11:05;1.60;;;1.00;;
10430;SDS011;5262;59.958;17.726;2024-01-27T05:13:31;3.47;;;1.37;;
10430;SDS011;5262;59.958;17.726;2024-01-27T05:15:57;1.60;;;1.30;;
10430;SDS011;5262;59.958;17.726;2024-01-27T05:18:22;3.13;;;1.40;;
10430;SDS011;5262;59.958;17.726;2024-01-27T05:20:48;1.53;;;1.20;;
10430;SDS011;5262;59.958;17.726;2024-01-27T05:23:13;1.37;;;1.20;;
10430;SDS011;5262;59.958;17.726;2024-01-27T05:25:39;2.10;;;1.40;;
10430;SDS011;5262;59.958;17.726;2024-01-27T05:28:04;1.50;;;1.13;;
10430;SDS011;5262;59.958;17.726;2024-01-27T05:30:30;2.17;;;1.27;;
10430;SDS011;5262;59.958;17.726;2024-01-27T05:32:56;3.97;;;1.70;;
10430;SDS011;5262;59.958;17.726;2024-01-27T05:35:22;2.13;;;1.73;;
10430;SDS011;5262;59.958;17.726;2024-01-27T05:37:47;1.80;;;1.50;;
10430;SDS011;5262;59.958;17.726;2024-01-27T05:40:13;2.30;;;1.77;;
10430;SDS011;5262;59.958;17.726;2024-01-27T05:42:40;2.37;;;1.60;;
10430;SDS011;5262;59.958;17.726;2024-01-27T05:45:08;4.43;;;1.97;;
10430;SDS011;5262;59.958;17.726;2024-01-27T05:47:35;1.10;;;1.00;;
10430;SDS011;5262;59.958;17.726;2024-01-27T05:50:01;2.03;;;1.30;;
10430;SDS011;5262;59.958;17.726;2024-01-27T05:52:26;3.67;;;1.17;;
10430;SDS011;5262;59.958;17.726;2024-01-27T05:54:52;3.40;;;0.87;;
10430;SDS011;5262;59.958;17.726;2024-01-27T05:57:19;1.33;;;0.87;;
10430;SDS011;5262;59.958;17.726;2024-01-27T05:59:44;1.53;;;0.80;;
10430;SDS011;5262;59.958;17.726;2024-01-27T06:02:10;2.40;;;0.63;;
10430;SDS011;5262;59.958;17.726;2024-01-27T06:04:35;1.93;;;0.80;;
10430;SDS011;5262;59.958;17.726;2024-01-27T06:07:01;2.70;;;1.13;;
10430;SDS011;5262;59.958;17.726;2024-01-27T06:09:27;1.10;;;1.00;;
10430;SDS011;5262;59.958;17.726;2024-01-27T06:11:52;1.40;;;1.10;;
10430;SDS011;5262;59.958;17.726;2024-01-27T06:14:18;4.03;;;1.27;;
10430;SDS011;5262;59.958;17.726;2024-01-27T06:16:44;1.47;;;1.00;;
10430;SDS011;5262;59.958;17.726;2024-01-27T06:19:09;3.80;;;1.07;;
10430;SDS011;5262;59.958;17.726;2024-01-27T06:21:35;2.57;;;1.20;;
10430;SDS011;5262;59.958;17.726;2024-01-27T06:24:01;2.87;;;1.20;;
10430;SDS011;5262;59.958;17.726;2024-01-27T06:26:27;6.07;;;1.60;;
10430;SDS011;5262;59.958;17.726;2024-01-27T06:28:52;4.83;;;1.20;;
10430;SDS011;5262;59.958;17.726;2024-01-27T06:31:18;2.07;;;1.13;;
10430;SDS011;5262;59.958;17.726;2024-01-27T06:33:44;6.33;;;1.10;;
10430;SDS011;5262;59.958;17.726;2024-01-27T06:36:09;1.97;;;1.13;;
10430;SDS011;5262;59.958;17.726;2024-01-27T06:38:37;5.30;;;1.33;;
10430;SDS011;5262;59.958;17.726;2024-01-27T06:41:03;3.00;;;1.47;;
10430;SDS011;5262;59.958;17.726;2024-01-27T06:43:28;2.90;;;0.93;;
10430;SDS011;5262;59.958;17.726;2024-01-27T06:45:54;2.13;;;0.83;;
10430;SDS011;5262;59.958;17.726;2024-01-27T06:48:22;2.23;;;1.40;;
10430;SDS011;5262;59.958;17.726;2024-01-27T06:50:50;2.73;;;1.50;;
10430;SDS011;5262;59.958;17.726;2024-01-27T06:53:17;5.50;;;1.30;;
10430;SDS011;5262;59.958;17.726;2024-01-27T06:55:43;1.77;;;1.00;;
10430;SDS011;5262;59.958;17.726;2024-01-27T06:58:09;3.70;;;1.30;;
10430;SDS011;5262;59.958;17.726;2024-01-27T07:00:35;7.27;;;1.30;;
10430;SDS011;5262;59.958;17.726;2024-01-27T07:03:00;5.30;;;1.77;;
10430;SDS011;5262;59.958;17.726;2024-01-27T07:05:27;5.63;;;1.27;;
10430;SDS011;5262;59.958;17.726;2024-01-27T07:07:53;8.23;;;1.53;;
10430;SDS011;5262;59.958;17.726;2024-01-27T07:10:19;7.80;;;1.43;;
10430;SDS011;5262;59.958;17.726;2024-01-27T07:12:45;5.93;;;1.30;;
10430;SDS011;5262;59.958;17.726;2024-01-27T07:15:11;5.33;;;1.50;;
10430;SDS011;5262;59.958;17.726;2024-01-27T07:17:36;2.73;;;1.40;;
10430;SDS011;5262;59.958;17.726;2024-01-27T07:20:02;3.33;;;1.20;;
10430;SDS011;5262;59.958;17.726;2024-01-27T07:22:28;3.97;;;1.10;;
10430;SDS011;5262;59.958;17.726;2024-01-27T07:24:53;6.33;;;1.20;;
10430;SDS011;5262;59.958;17.726;2024-01-27T07:27:22;5.03;;;1.87;;
10430;SDS011;5262;59.958;17.726;2024-01-27T07:29:48;3.53;;;1.27;;
10430;SDS011;5262;59.958;17.726;2024-01-27T07:32:14;7.20;;;1.30;;
10430;SDS011;5262;59.958;17.726;2024-01-27T07:34:40;4.20;;;1.30;;
10430;SDS011;5262;59.958;17.726;2024-01-27T07:37:07;8.17;;;1.47;;
10430;SDS011;5262;59.958;17.726;2024-01-27T07:39:33;3.47;;;1.50;;
10430;SDS011;5262;59.958;17.726;2024-01-27T07:41:59;4.27;;;1.33;;
10430;SDS011;5262;59.958;17.726;2024-01-27T07:44:24;3.67;;;1.30;;
10430;SDS011;5262;59.958;17.726;2024-01-27T07:46:50;6.63;;;1.40;;
10430;SDS011;5262;59.958;17.726;2024-01-27T07:49:15;4.37;;;1.30;;
10430;SDS011;5262;59.958;17.726;2024-01-27T07:51:41;2.63;;;1.50;;
10430;SDS011;5262;59.958;17.726;2024-01-27T07:54:07;6.33;;;1.57;;
10430;SDS011;5262;59.958;17.726;2024-01-27T07:56:32;1.90;;;1.30;;
10430;SDS011;5262;59.958;17.726;2024-01-27T07:58:58;4.90;;;1.53;;
10430;SDS011;5262;59.958;17.726;2024-01-27T08:01:24;5.87;;;1.33;;
10430;SDS011;5262;59.958;17.726;2024-01-27T08:03:49;6.27;;;1.43;;
10430;SDS011;5262;59.958;17.726;2024-01-27T08:06:16;5.57;;;1.57;;
10430;SDS011;5262;59.958;17.726;2024-01-27T08:08:46;10.63;;;1.80;;
10430;SDS011;5262;59.958;17.726;2024-01-27T08:11:13;5.20;;;1.80;;
10430;SDS011;5262;59.958;17.726;2024-01-27T08:13:39;8.13;;;2.00;;
10430;SDS011;5262;59.958;17.726;2024-01-27T08:16:04;9.87;;;3.07;;
10430;SDS011;5262;59.958;17.726;2024-01-27T08:18:30;6.80;;;2.47;;
10430;SDS011;5262;59.958;17.726;2024-01-27T08:20:56;8.87;;;2.43;;
10430;SDS011;5262;59.958;17.726;2024-01-27T08:23:22;6.23;;;2.07;;
10430;SDS011;5262;59.958;17.726;2024-01-27T08:25:48;9.40;;;2.70;;
10430;SDS011;5262;59.958;17.726;2024-01-27T08:28:17;8.13;;;2.73;;
10430;SDS011;5262;59.958;17.726;2024-01-27T08:30:43;7.90;;;2.60;;
10430;SDS011;5262;59.958;17.726;2024-01-27T08:33:09;9.23;;;2.47;;
10430;SDS011;5262;59.958;17.726;2024-01-27T08:35:35;5.23;;;2.53;;
10430;SDS011;5262;59.958;17.726;2024-01-27T08:38:00;7.97;;;2.20;;
10430;SDS011;5262;59.958;17.726;2024-01-27T08:40:26;6.37;;;2.60;;
10430;SDS011;5262;59.958;17.726;2024-01-27T08:42:52;8.77;;;2.57;;
10430;SDS011;5262;59.958;17.726;2024-01-27T08:45:17;6.67;;;2.63;;
10430;SDS011;5262;59.958;17.726;2024-01-27T08:47:43;5.73;;;3.17;;
10430;SDS011;5262;59.958;17.726;2024-01-27T08:50:09;7.53;;;2.73;;
10430;SDS011;5262;59.958;17.726;2024-01-27T08:52:35;7.40;;;2.70;;
10430;SDS011;5262;59.958;17.726;2024-01-27T08:55:01;5.60;;;2.50;;
10430;SDS011;5262;59.958;17.726;2024-01-27T08:57:27;5.57;;;2.17;;
10430;SDS011;5262;59.958;17.726;2024-01-27T08:59:53;7.97;;;2.10;;
10430;SDS011;5262;59.958;17.726;2024-01-27T09:02:18;10.77;;;2.90;;
10430;SDS011;5262;59.958;17.726;2024-01-27T09:04:44;8.07;;;3.40;;
10430;SDS011;5262;59.958;17.726;2024-01-27T09:07:11;6.27;;;3.20;;
10430;SDS011;5262;59.958;17.726;2024-01-27T09:09:37;7.40;;;3.77;;
10430;SDS011;5262;59.958;17.726;2024-01-27T09:12:04;8.93;;;3.23;;
10430;SDS011;5262;59.958;17.726;2024-01-27T09:14:29;10.17;;;3.03;;
10430;SDS011;5262;59.958;17.726;2024-01-27T09:16:55;7.83;;;2.87;;
10430;SDS011;5262;59.958;17.726;2024-01-27T09:19:21;9.17;;;2.57;;
10430;SDS011;5262;59.958;17.726;2024-01-27T09:21:47;15.30;;;10.93;;
10430;SDS011;5262;59.958;17.726;2024-01-27T09:24:12;19.67;;;13.10;;
10430;SDS011;5262;59.958;17.726;2024-01-27T09:26:38;19.40;;;9.50;;
10430;SDS011;5262;59.958;17.726;2024-01-27T09:29:04;11.43;;;3.33;;
10430;SDS011;5262;59.958;17.726;2024-01-27T09:31:29;6.17;;;2.13;;
10430;SDS011;5262;59.958;17.726;2024-01-27T09:33:55;10.70;;;2.90;;
10430;SDS011;5262;59.958;17.726;2024-01-27T09:36:21;10.13;;;6.67;;
10430;SDS011;5262;59.958;17.726;2024-01-27T09:38:47;12.53;;;6.00;;
10430;SDS011;5262;59.958;17.726;2024-01-27T09:41:13;15.57;;;6.57;;
10430;SDS011;5262;59.958;17.726;2024-01-27T09:43:41;12.60;;;6.10;;
10430;SDS011;5262;59.958;17.726;2024-01-27T09:46:12;7.33;;;3.70;;
10430;SDS011;5262;59.958;17.726;2024-01-27T09:48:38;9.40;;;3.37;;
10430;SDS011;5262;59.958;17.726;2024-01-27T09:51:05;8.63;;;3.73;;
10430;SDS011;5262;59.958;17.726;2024-01-27T09:53:32;6.90;;;3.33;;
10430;SDS011;5262;59.958;17.726;2024-01-27T09:55:58;4.93;;;1.90;;
10430;SDS011;5262;59.958;17.726;2024-01-27T09:58:26;3.50;;;1.60;;
10430;SDS011;5262;59.958;17.726;2024-01-27T10:00:55;9.87;;;1.70;;
10430;SDS011;5262;59.958;17.726;2024-01-27T10:03:23;4.63;;;1.70;;
10430;SDS011;5262;59.958;17.726;2024-01-27T10:05:50;4.17;;;1.93;;
10430;SDS011;5262;59.958;17.726;2024-01-27T10:08:21;5.70;;;1.50;;
10430;SDS011;5262;59.958;17.726;2024-01-27T10:10:47;7.50;;;1.40;;
10430;SDS011;5262;59.958;17.726;2024-01-27T10:13:19;8.93;;;1.47;;
10430;SDS011;5262;59.958;17.726;2024-01-27T10:16:04;7.20;;;1.80;;
10430;SDS011;5262;59.958;17.726;2024-01-27T10:18:33;5.23;;;1.60;;
10430;SDS011;5262;59.958;17.726;2024-01-27T10:21:00;8.80;;;1.67;;
10430;SDS011;5262;59.958;17.726;2024-01-27T10:23:38;7.10;;;2.37;;
10430;SDS011;5262;59.958;17.726;2024-01-27T10:26:04;7.93;;;2.27;;
10430;SDS011;5262;59.958;17.726;2024-01-27T10:28:30;6.37;;;2.17;;
10430;SDS011;5262;59.958;17.726;2024-01-27T10:31:07;6.30;;;2.03;;
10430;SDS011;5262;59.958;17.726;2024-01-27T10:33:36;7.07;;;1.43;;
10430;SDS011;5262;59.958;17.726;2024-01-27T10:36:02;6.53;;;1.90;;
10430;SDS011;5262;59.958;17.726;2024-01-27T10:38:35;7.10;;;1.20;;
10430;SDS011;5262;59.958;17.726;2024-01-27T10:41:04;5.63;;;1.10;;
10430;SDS011;5262;59.958;17.726;2024-01-27T10:43:37;5.80;;;1.47;;
10430;SDS011;5262;59.958;17.726;2024-01-27T10:46:04;7.27;;;3.37;;
10430;SDS011;5262;59.958;17.726;2024-01-27T10:48:32;7.70;;;3.23;;
10430;SDS011;5262;59.958;17.726;2024-01-27T10:51:00;9.13;;;3.30;;
10430;SDS011;5262;59.958;17.726;2024-01-27T10:53:32;6.57;;;2.60;;
10430;SDS011;5262;59.958;17.726;2024-01-27T10:56:00;4.97;;;1.83;;
10430;SDS011;5262;59.958;17.726;2024-01-27T10:58:29;5.63;;;1.33;;
10430;SDS011;5262;59.958;17.726;2024-01-27T11:00:56;8.07;;;1.90;;
10430;SDS011;5262;59.958;17.726;2024-01-27T11:03:24;6.27;;;1.50;;
10430;SDS011;5262;59.958;17.726;2024-01-27T11:05:51;6.57;;;2.10;;
10430;SDS011;5262;59.958;17.726;2024-01-27T11:08:17;6.53;;;1.50;;
10430;SDS011;5262;59.958;17.726;2024-01-27T11:10:44;4.30;;;1.57;;
10430;SDS011;5262;59.958;17.726;2024-01-27T11:13:10;8.30;;;1.37;;
10430;SDS011;5262;59.958;17.726;2024-01-27T11:15:36;7.03;;;1.90;;
10430;SDS011;5262;59.958;17.726;2024-01-27T11:18:02;7.20;;;3.10;;
10430;SDS011;5262;59.958;17.726;2024-01-27T11:20:32;8.00;;;2.57;;
10430;SDS011;5262;59.958;17.726;2024-01-27T11:23:11;6.90;;;1.70;;
10430;SDS011;5262;59.958;17.726;2024-01-27T11:25:39;5.73;;;1.70;;
10430;SDS011;5262;59.958;17.726;2024-01-27T11:28:15;3.93;;;1.67;;
10430;SDS011;5262;59.958;17.726;2024-01-27T11:30:48;7.60;;;2.00;;
10430;SDS011;5262;59.958;17.726;2024-01-27T11:33:14;5.67;;;1.90;;
10430;SDS011;5262;59.958;17.726;2024-01-27T11:35:40;4.77;;;2.00;;
10430;SDS011;5262;59.958;17.726;2024-01-27T11:38:05;4.03;;;1.43;;
10430;SDS011;5262;59.958;17.726;2024-01-27T11:40:31;5.43;;;1.70;;
10430;SDS011;5262;59.958;17.726;2024-01-27T11:42:58;4.93;;;1.43;;
10430;SDS011;5262;59.958;17.726;2024-01-27T11:45:26;3.53;;;1.50;;
10430;SDS011;5262;59.958;17.726;2024-01-27T11:47:55;9.60;;;1.60;;
10430;SDS011;5262;59.958;17.726;2024-01-27T11:50:22;6.83;;;1.90;;
10430;SDS011;5262;59.958;17.726;2024-01-27T11:52:48;6.40;;;1.53;;
10430;SDS011;5262;59.958;17.726;2024-01-27T11:55:14;7.60;;;1.23;;
10430;SDS011;5262;59.958;17.726;2024-01-27T11:57:44;3.30;;;1.00;;
10430;SDS011;5262;59.958;17.726;2024-01-27T12:00:10;5.97;;;1.33;;
10430;SDS011;5262;59.958;17.726;2024-01-27T12:02:36;4.33;;;1.13;;
10430;SDS011;5262;59.958;17.726;2024-01-27T12:05:03;3.67;;;1.17;;
10430;SDS011;5262;59.958;17.726;2024-01-27T12:07:30;5.57;;;1.30;;
10430;SDS011;5262;59.958;17.726;2024-01-27T12:09:56;4.70;;;1.17;;
10430;SDS011;5262;59.958;17.726;2024-01-27T12:12:21;3.37;;;1.00;;
10430;SDS011;5262;59.958;17.726;2024-01-27T12:14:48;3.63;;;1.10;;
10430;SDS011;5262;59.958;17.726;2024-01-27T12:17:14;6.43;;;1.50;;
10430;SDS011;5262;59.958;17.726;2024-01-27T12:19:50;4.67;;;1.00;;
10430;SDS011;5262;59.958;17.726;2024-01-27T12:22:24;6.47;;;1.20;;
10430;SDS011;5262;59.958;17.726;2024-01-27T12:24:54;6.03;;;1.23;;
10430;SDS011;5262;59.958;17.726;2024-01-27T12:27:36;10.50;;;1.70;;
10430;SDS011;5262;59.958;17.726;2024-01-27T12:30:03;3.43;;;1.50;;
10430;SDS011;5262;59.958;17.726;2024-01-27T12:32:29;7.23;;;1.80;;
10430;SDS011;5262;59.958;17.726;2024-01-27T12:34:57;5.17;;;1.40;;
10430;SDS011;5262;59.958;17.726;2024-01-27T12:37:25;6.27;;;1.30;;
10430;SDS011;5262;59.958;17.726;2024-01-27T12:39:51;4.93;;;1.17;;
10430;SDS011;5262;59.958;17.726;2024-01-27T12:42:17;5.17;;;1.20;;
10430;SDS011;5262;59.958;17.726;2024-01-27T12:44:43;4.67;;;0.90;;
10430;SDS011;5262;59.958;17.726;2024-01-27T12:47:12;5.20;;;1.60;;
10430;SDS011;5262;59.958;17.726;2024-01-27T12:49:38;7.63;;;1.50;;
10430;SDS011;5262;59.958;17.726;2024-01-27T12:52:05;3.03;;;1.10;;
10430;SDS011;5262;59.958;17.726;2024-01-27T12:54:31;4.77;;;0.90;;
10430;SDS011;5262;59.958;17.726;2024-01-27T12:56:57;6.10;;;1.10;;
10430;SDS011;5262;59.958;17.726;2024-01-27T12:59:23;4.87;;;1.00;;
10430;SDS011;5262;59.958;17.726;2024-01-27T13:01:49;4.80;;;1.33;;
10430;SDS011;5262;59.958;17.726;2024-01-27T13:04:14;7.07;;;1.07;;
10430;SDS011;5262;59.958;17.726;2024-01-27T13:06:40;5.20;;;1.20;;
10430;SDS011;5262;59.958;17.726;2024-01-27T13:09:07;6.67;;;1.77;;
10430;SDS011;5262;59.958;17.726;2024-01-27T13:11:36;2.40;;;1.23;;
10430;SDS011;5262;59.958;17.726;2024-01-27T13:14:02;8.00;;;1.90;;
10430;SDS011;5262;59.958;17.726;2024-01-27T13:16:28;6.53;;;1.10;;
10430;SDS011;5262;59.958;17.726;2024-01-27T13:18:53;4.63;;;1.20;;
10430;SDS011;5262;59.958;17.726;2024-01-27T13:21:19;4.17;;;1.40;;
10430;SDS011;5262;59.958;17.726;2024-01-27T13:23:44;3.60;;;1.20;;
10430;SDS011;5262;59.958;17.726;2024-01-27T13:26:10;2.00;;;1.07;;
10430;SDS011;5262;59.958;17.726;2024-01-27T13:28:36;4.43;;;1.20;;
10430;SDS011;5262;59.958;17.726;2024-01-27T13:31:01;5.63;;;1.40;;
10430;SDS011;5262;59.958;17.726;2024-01-27T13:33:27;6.97;;;1.87;;
10430;SDS011;5262;59.958;17.726;2024-01-27T13:35:53;6.33;;;1.67;;
10430;SDS011;5262;59.958;17.726;2024-01-27T13:38:19;5.10;;;1.07;;
10430;SDS011;5262;59.958;17.726;2024-01-27T13:40:48;3.67;;;1.00;;
10430;SDS011;5262;59.958;17.726;2024-01-27T13:43:14;7.50;;;1.33;;
10430;SDS011;5262;59.958;17.726;2024-01-27T13:45:40;5.53;;;1.43;;
10430;SDS011;5262;59.958;17.726;2024-01-27T13:48:06;7.80;;;1.70;;
10430;SDS011;5262;59.958;17.726;2024-01-27T13:50:32;6.03;;;1.47;;
10430;SDS011;5262;59.958;17.726;2024-01-27T13:52:58;4.33;;;1.30;;
10430;SDS011;5262;59.958;17.726;2024-01-27T13:55:24;4.43;;;1.23;;
10430;SDS011;5262;59.958;17.726;2024-01-27T13:57:49;4.30;;;1.30;;
10430;SDS011;5262;59.958;17.726;2024-01-27T14:00:15;3.20;;;1.77;;
10430;SDS011;5262;59.958;17.726;2024-01-27T14:02:41;6.50;;;1.40;;
10430;SDS011;5262;59.958;17.726;2024-01-27T14:05:07;7.60;;;1.20;;
10430;SDS011;5262;59.958;17.726;2024-01-27T14:07:34;5.20;;;1.43;;
10430;SDS011;5262;59.958;17.726;2024-01-27T14:10:00;5.57;;;1.10;;
10430;SDS011;5262;59.958;17.726;2024-01-27T14:12:26;3.70;;;1.33;;
10430;SDS011;5262;59.958;17.726;2024-01-27T14:14:52;9.10;;;1.23;;
10430;SDS011;5262;59.958;17.726;2024-01-27T14:17:17;7.27;;;1.50;;
10430;SDS011;5262;59.958;17.726;2024-01-27T14:19:46;5.40;;;1.23;;
10430;SDS011;5262;59.958;17.726;2024-01-27T14:22:12;4.90;;;1.43;;
10430;SDS011;5262;59.958;17.726;2024-01-27T14:24:38;4.77;;;1.07;;
10430;SDS011;5262;59.958;17.726;2024-01-27T14:27:06;7.37;;;1.70;;
10430;SDS011;5262;59.958;17.726;2024-01-27T14:29:33;6.03;;;1.50;;
10430;SDS011;5262;59.958;17.726;2024-01-27T14:32:00;5.97;;;1.40;;
10430;SDS011;5262;59.958;17.726;2024-01-27T14:34:25;6.37;;;1.10;;
10430;SDS011;5262;59.958;17.726;2024-01-27T14:36:51;5.60;;;1.90;;
10430;SDS011;5262;59.958;17.726;2024-01-27T14:39:17;7.07;;;1.93;;
10430;SDS011;5262;59.958;17.726;2024-01-27T14:41:43;7.07;;;1.70;;
10430;SDS011;5262;59.958;17.726;2024-01-27T14:44:09;6.07;;;1.47;;